createdAt,value
2019-05-14T06:25:11.122Z,31.70
2019-05-14T06:28:08.529Z,31.70
2019-05-14T06:31:02.145Z,31.70
2019-05-14T06:33:59.578Z,31.70
2019-05-14T06:36:58.915Z,31.70
2019-05-14T06:39:58.658Z,31.80
2019-05-14T06:42:52.967Z,31.80
2019-05-14T06:45:49.306Z,31.80
2019-05-14T06:48:48.797Z,31.80
2019-05-14T06:51:42.882Z,31.80
2019-05-14T06:54:38.658Z,31.90
2019-05-14T06:57:39.336Z,31.90
2019-05-14T07:00:30.871Z,31.90
2019-05-14T07:03:24.691Z,31.90
2019-05-14T07:06:18.692Z,31.90
2019-05-14T07:09:14.247Z,31.90
2019-05-14T07:12:09.680Z,31.90
2019-05-14T07:15:04.528Z,31.90
2019-05-14T07:17:59.886Z,31.90
2019-05-14T07:20:55.490Z,32.00
2019-05-14T07:23:48.881Z,32.00
2019-05-14T07:26:41.727Z,32.00
2019-05-14T07:29:38.524Z,32.10
2019-05-14T07:32:30.686Z,32.10
2019-05-14T07:35:25.406Z,32.00
2019-05-14T07:38:19.579Z,32.00
2019-05-14T07:41:14.679Z,32.10
2019-05-14T07:44:11.089Z,32.10
2019-05-14T07:47:05.081Z,32.10
2019-05-14T07:49:58.280Z,32.10
2019-05-14T07:52:55.602Z,32.10
2019-05-14T07:55:51.139Z,32.10
2019-05-14T07:58:44.738Z,32.10
2019-05-14T08:01:44.229Z,32.10
2019-05-14T08:04:55.203Z,32.10
2019-05-14T08:07:50.374Z,32.10
2019-05-14T08:10:48.902Z,32.10
2019-05-14T08:14:00.493Z,32.10
2019-05-14T08:17:09.881Z,32.10
2019-05-14T08:20:05.215Z,32.10
2019-05-14T08:23:03.707Z,31.70
2019-05-14T08:25:58.676Z,31.00
2019-05-14T08:28:55.368Z,30.60
2019-05-14T08:31:52.874Z,30.40
2019-05-14T08:34:48.963Z,29.70
2019-05-14T08:37:45.174Z,29.10
2019-05-14T08:40:40.164Z,28.80
2019-05-14T08:43:39.366Z,28.40
2019-05-14T08:46:32.875Z,28.20
2019-05-14T08:49:39.151Z,28.10
2019-05-14T08:52:24.810Z,27.90
2019-05-14T08:55:33.325Z,27.80
2019-05-14T08:58:30.018Z,27.60
2019-05-14T09:01:23.808Z,27.50
2019-05-14T09:04:16.303Z,27.40
2019-05-14T09:07:09.568Z,27.30
2019-05-14T09:10:04.975Z,27.10
2019-05-14T09:13:02.658Z,27.00
2019-05-14T09:15:58.063Z,26.90
2019-05-14T09:18:58.112Z,26.80
2019-05-14T09:21:54.716Z,26.90
2019-05-14T09:24:49.218Z,26.70
2019-05-14T09:27:49.194Z,26.60
2019-05-14T09:30:41.333Z,27.20
2019-05-14T09:33:39.021Z,27.70
2019-05-14T09:36:33.145Z,28.20
2019-05-14T09:39:29.126Z,28.60
2019-05-14T09:42:28.558Z,28.90
2019-05-14T09:45:38.788Z,29.10
2019-05-14T09:48:50.117Z,29.30
2019-05-14T09:51:48.736Z,29.60
2019-05-14T09:54:45.604Z,29.70
2019-05-14T09:57:41.095Z,29.80
2019-05-14T10:00:39.218Z,29.90
2019-05-14T10:05:03.910Z,30.00
2019-05-14T10:07:15.205Z,30.10
2019-05-14T10:10:07.374Z,30.20
2019-05-14T10:13:14.353Z,30.40
2019-05-14T10:16:10.622Z,30.40
2019-05-14T10:19:04.153Z,30.50
2019-05-14T10:21:58.782Z,30.50
2019-05-14T10:24:53.679Z,30.60
2019-05-14T10:27:48.957Z,30.60
2019-05-14T10:30:49.097Z,30.70
2019-05-14T10:33:44.245Z,30.70
2019-05-14T10:36:41.383Z,30.70
2019-05-14T10:39:38.867Z,30.80
2019-05-14T10:42:35.769Z,30.80
2019-05-14T10:45:30.763Z,30.90
2019-05-14T10:48:25.417Z,30.90
2019-05-14T10:51:23.521Z,31.00
2019-05-14T10:54:25.020Z,31.00
2019-05-14T10:57:14.968Z,31.10
2019-05-14T11:00:10.013Z,31.10
2019-05-14T11:03:30.223Z,31.10
2019-05-14T11:06:34.004Z,31.20
2019-05-14T11:09:31.777Z,31.20
2019-05-14T11:15:54.135Z,31.30
2019-05-14T11:18:49.736Z,31.30
2019-05-14T11:21:59.317Z,31.30
2019-05-14T11:24:51.579Z,31.30
2019-05-14T11:28:00.716Z,31.40
2019-05-14T11:30:45.847Z,31.40
2019-05-14T11:36:40.424Z,31.40
2019-05-14T11:39:34.464Z,31.40
2019-05-14T11:42:31.383Z,31.40
2019-05-14T11:46:38.741Z,31.40
2019-05-14T11:48:21.633Z,31.50
2019-05-14T11:51:20.594Z,31.50
2019-05-14T11:54:22.825Z,31.50
2019-05-14T11:57:15.897Z,31.50
2019-05-14T12:00:09.457Z,31.60
2019-05-14T12:03:05.145Z,31.60
2019-05-14T12:06:01.060Z,31.60
2019-05-14T12:08:58.137Z,31.60
2019-05-14T12:11:51.991Z,31.60
2019-05-14T12:17:51.010Z,31.60
2019-05-14T12:20:46.167Z,31.60
2019-05-14T12:23:40.381Z,31.60
2019-05-14T12:26:35.220Z,31.60
2019-05-14T12:29:30.410Z,31.60
2019-05-14T12:32:25.867Z,31.60
2019-05-14T12:35:19.674Z,31.60
2019-05-14T12:38:13.848Z,31.70
2019-05-14T12:41:09.232Z,31.70
2019-05-14T12:44:02.701Z,31.70
2019-05-14T12:46:58.703Z,31.70
2019-05-14T12:49:53.266Z,31.70
2019-05-14T12:52:48.467Z,31.70
